Time;durP1;ratioP1;P1;durP2;ratioP2;P2;SDS_P1;SDS_P2;PMS_P1;PMS_P2;Temp;Humidity;BMP_temperature;BMP_pressure;BME280_temperature;BME280_humidity;BME280_pressure;Samples;Min_cycle;Max_cycle;Signal;HPM_P1;HPM_P2
2021/10/26 00:00:06;;;;;;;21.63;12.53;;;4.50;99.90;;;;;;4970883;28;20169;-60
2021/10/26 00:02:31;;;;;;;24.10;12.90;;;4.50;99.90;;;;;;4967631;28;20477;-59
2021/10/26 00:04:57;;;;;;;20.20;13.33;;;4.50;99.90;;;;;;4969467;28;20535;-59
2021/10/26 00:07:23;;;;;;;20.93;12.67;;;4.50;99.90;;;;;;4951965;28;20186;-59
2021/10/26 00:09:48;;;;;;;17.83;12.10;;;4.50;99.90;;;;;;4963137;28;20181;-58
2021/10/26 00:12:14;;;;;;;22.77;13.10;;;4.50;99.90;;;;;;4951383;28;20221;-59
2021/10/26 00:14:40;;;;;;;24.67;13.27;;;4.50;99.90;;;;;;4964916;28;20257;-59
2021/10/26 00:17:06;;;;;;;25.77;12.97;;;4.40;99.90;;;;;;4970566;28;20170;-59
2021/10/26 00:19:32;;;;;;;31.33;12.40;;;4.40;99.90;;;;;;4970862;28;20443;-59
2021/10/26 00:21:58;;;;;;;20.83;12.47;;;4.40;99.90;;;;;;4978804;28;20201;-59
2021/10/26 00:24:23;;;;;;;23.07;12.80;;;4.40;99.90;;;;;;4964206;28;20516;-58
2021/10/26 00:26:51;;;;;;;32.73;13.20;;;4.40;99.90;;;;;;4969810;28;20182;-59
2021/10/26 00:29:17;;;;;;;17.60;11.80;;;4.40;99.90;;;;;;4968247;28;20613;-58
2021/10/26 00:31:42;;;;;;;17.13;11.57;;;4.40;99.90;;;;;;4970274;28;21022;-58
2021/10/26 00:34:08;;;;;;;19.00;11.77;;;4.40;99.90;;;;;;4985292;28;20685;-59
2021/10/26 00:36:34;;;;;;;18.53;12.50;;;4.40;99.90;;;;;;4969261;28;20179;-59
2021/10/26 00:39:00;;;;;;;21.20;12.80;;;4.40;99.90;;;;;;4965550;28;20670;-59
2021/10/26 00:41:26;;;;;;;26.67;13.00;;;4.40;99.90;;;;;;4960190;28;20441;-59
2021/10/26 00:43:52;;;;;;;28.67;13.73;;;4.40;99.90;;;;;;4969382;28;20174;-59
2021/10/26 00:46:33;;;;;;;30.33;13.57;;;4.40;99.90;;;;;;4970762;28;20451;-59
2021/10/26 00:49:00;;;;;;;26.90;14.83;;;4.30;99.90;;;;;;4973783;28;20432;-60
2021/10/26 00:51:28;;;;;;;32.90;14.70;;;4.30;99.90;;;;;;4993953;28;20469;-59
2021/10/26 00:53:55;;;;;;;36.47;15.40;;;4.30;99.90;;;;;;4973864;28;21057;-58
2021/10/26 00:56:21;;;;;;;35.83;16.73;;;4.30;99.90;;;;;;4969915;28;20541;-59
2021/10/26 00:58:47;;;;;;;33.90;15.77;;;4.30;99.90;;;;;;4973046;28;20527;-59
2021/10/26 01:01:13;;;;;;;36.87;16.63;;;4.30;99.90;;;;;;4971087;28;20462;-59
2021/10/26 01:03:39;;;;;;;38.23;15.70;;;4.30;99.90;;;;;;4972128;28;20421;-58
2021/10/26 01:06:05;;;;;;;39.60;16.77;;;4.30;99.90;;;;;;4968062;28;20289;-60
2021/10/26 01:08:31;;;;;;;28.10;15.27;;;4.40;99.90;;;;;;4973336;28;20249;-61
2021/10/26 01:10:58;;;;;;;34.47;16.10;;;4.40;99.90;;;;;;4973725;28;20380;-59
2021/10/26 01:13:24;;;;;;;29.23;15.13;;;4.40;99.90;;;;;;4963554;28;20432;-58
2021/10/26 01:15:54;;;;;;;43.00;17.67;;;4.40;99.90;;;;;;4972545;28;20492;-59
2021/10/26 01:18:20;;;;;;;53.77;17.90;;;4.40;99.90;;;;;;4977859;28;20515;-60
2021/10/26 01:20:46;;;;;;;114.73;21.97;;;4.40;99.90;;;;;;4979733;28;20421;-59
2021/10/26 01:23:12;;;;;;;38.93;17.67;;;4.40;99.90;;;;;;4966152;28;20452;-59
2021/10/26 01:25:38;;;;;;;40.90;16.80;;;4.40;99.90;;;;;;4972525;28;20457;-59
2021/10/26 01:28:04;;;;;;;47.27;17.10;;;4.40;99.90;;;;;;4972787;28;20777;-59
2021/10/26 01:30:33;;;;;;;40.57;17.43;;;4.40;99.90;;;;;;4967683;28;20441;-59
2021/10/26 01:33:04;;;;;;;45.80;18.30;;;4.40;99.90;;;;;;4987457;28;20448;-59
2021/10/26 01:35:30;;;;;;;46.13;18.47;;;4.40;99.90;;;;;;4954383;28;20847;-60
2021/10/26 01:37:59;;;;;;;39.13;17.70;;;4.50;99.90;;;;;;4969816;28;20939;-59
2021/10/26 01:40:25;;;;;;;43.87;17.87;;;4.50;99.90;;;;;;4966800;28;20452;-59
2021/10/26 01:42:51;;;;;;;42.50;18.30;;;4.50;99.90;;;;;;4953756;28;20422;-59
2021/10/26 01:45:17;;;;;;;36.47;16.40;;;4.50;99.90;;;;;;4953315;28;20198;-59
2021/10/26 01:47:44;;;;;;;43.63;16.67;;;4.50;99.90;;;;;;4966337;28;20440;-59
2021/10/26 01:50:12;;;;;;;32.13;15.27;;;4.60;99.90;;;;;;4985903;28;20460;-59
2021/10/26 01:52:38;;;;;;;22.67;13.10;;;4.60;99.90;;;;;;4980051;28;20695;-59
2021/10/26 01:55:05;;;;;;;24.37;13.47;;;4.60;99.90;;;;;;4986549;28;20473;-58
2021/10/26 01:57:31;;;;;;;27.63;13.70;;;4.60;99.90;;;;;;4968571;28;20182;-59
2021/10/26 01:59:57;;;;;;;26.50;12.40;;;4.60;99.90;;;;;;4967643;28;20525;-59
2021/10/26 02:02:25;;;;;;;32.10;13.07;;;4.60;99.90;;;;;;4972426;28;20949;-59
2021/10/26 02:04:52;;;;;;;27.37;14.77;;;4.60;99.90;;;;;;4970450;28;20461;-59
2021/10/26 02:07:18;;;;;;;33.97;16.00;;;4.60;99.90;;;;;;4967464;28;20524;-59
2021/10/26 02:09:44;;;;;;;28.30;14.60;;;4.60;99.90;;;;;;4972176;28;20419;-59
2021/10/26 02:12:09;;;;;;;31.20;15.43;;;4.60;99.90;;;;;;4970460;28;20433;-59
2021/10/26 02:14:35;;;;;;;28.67;14.80;;;4.60;99.90;;;;;;4972257;28;20181;-59
2021/10/26 02:17:03;;;;;;;30.43;15.80;;;4.60;99.90;;;;;;4971069;28;20185;-58
2021/10/26 02:19:28;;;;;;;34.10;15.50;;;4.50;99.90;;;;;;4971541;28;20197;-59
2021/10/26 02:21:54;;;;;;;26.47;14.37;;;4.50;99.90;;;;;;4967024;28;20827;-58
2021/10/26 02:24:20;;;;;;;33.03;14.50;;;4.50;99.90;;;;;;4968601;28;20585;-59
2021/10/26 02:26:46;;;;;;;25.97;13.90;;;4.50;99.90;;;;;;4959610;28;20253;-59
2021/10/26 02:29:12;;;;;;;29.90;14.37;;;4.50;99.90;;;;;;4963648;28;20465;-59
2021/10/26 02:31:38;;;;;;;35.50;14.20;;;4.50;99.90;;;;;;4965442;28;21252;-59
2021/10/26 02:34:04;;;;;;;31.30;14.47;;;4.50;99.90;;;;;;4952449;28;20417;-59
2021/10/26 02:36:30;;;;;;;29.83;13.50;;;4.50;99.90;;;;;;4971589;28;20186;-59
2021/10/26 02:38:56;;;;;;;21.37;11.93;;;4.60;99.90;;;;;;4971295;28;20412;-59
2021/10/26 02:41:22;;;;;;;20.80;11.57;;;4.60;99.90;;;;;;4961079;28;20770;-59
2021/10/26 02:43:47;;;;;;;21.73;12.57;;;4.60;99.90;;;;;;4971817;28;20162;-59
2021/10/26 02:46:13;;;;;;;22.93;12.43;;;4.60;99.90;;;;;;4961574;28;20229;-59
2021/10/26 02:48:42;;;;;;;20.80;12.93;;;4.60;99.90;;;;;;4952679;28;20406;-59
2021/10/26 02:51:10;;;;;;;21.57;12.20;;;4.70;99.90;;;;;;4975189;28;20628;-58
2021/10/26 02:53:36;;;;;;;18.80;12.30;;;4.70;99.90;;;;;;4969865;28;20437;-58
2021/10/26 02:56:02;;;;;;;20.80;12.03;;;4.70;99.90;;;;;;4970075;28;20805;-59
2021/10/26 02:58:28;;;;;;;22.63;11.50;;;4.70;99.90;;;;;;4963329;28;20182;-58
2021/10/26 03:00:53;;;;;;;17.83;11.37;;;4.70;99.90;;;;;;4956471;28;20802;-59
2021/10/26 03:03:20;;;;;;;20.90;11.57;;;4.70;99.90;;;;;;4967464;28;20189;-59
2021/10/26 03:05:46;;;;;;;19.27;11.00;;;4.70;99.90;;;;;;4970512;28;20716;-59
2021/10/26 03:08:11;;;;;;;19.37;11.40;;;4.70;99.90;;;;;;4965482;28;20465;-59
2021/10/26 03:10:38;;;;;;;16.50;11.20;;;4.60;99.90;;;;;;4971759;28;20405;-60
2021/10/26 03:13:04;;;;;;;20.23;11.90;;;4.70;99.90;;;;;;4969847;28;20248;-59
2021/10/26 03:15:30;;;;;;;20.30;12.10;;;4.70;99.90;;;;;;4970503;28;20433;-60
2021/10/26 03:17:57;;;;;;;19.93;10.80;;;4.70;99.90;;;;;;4981225;28;20430;-59
2021/10/26 03:20:22;;;;;;;18.30;11.70;;;4.70;99.90;;;;;;4968335;28;20463;-59
2021/10/26 03:22:49;;;;;;;21.40;11.70;;;4.80;99.90;;;;;;4969182;28;20445;-59
2021/10/26 03:25:15;;;;;;;26.10;11.40;;;4.80;99.90;;;;;;4970089;28;20206;-59
2021/10/26 03:27:41;;;;;;;18.80;11.07;;;4.70;99.90;;;;;;4964974;28;20430;-59
2021/10/26 03:30:09;;;;;;;18.47;11.60;;;4.70;99.90;;;;;;4962141;28;20968;-59
2021/10/26 03:32:35;;;;;;;22.33;10.73;;;4.80;99.90;;;;;;4970358;28;20239;-59
2021/10/26 03:35:01;;;;;;;19.57;11.90;;;4.70;99.90;;;;;;4970949;28;20831;-59
2021/10/26 03:37:27;;;;;;;19.50;11.57;;;4.70;99.90;;;;;;4969137;28;20563;-59
2021/10/26 03:39:56;;;;;;;20.20;11.20;;;4.80;99.90;;;;;;4971755;28;20184;-60
2021/10/26 03:42:25;;;;;;;17.13;11.00;;;4.80;99.90;;;;;;4971122;28;20213;-59
2021/10/26 03:44:52;;;;;;;20.73;10.27;;;4.80;99.90;;;;;;4981085;28;20500;-59
2021/10/26 03:47:19;;;;;;;17.60;10.97;;;4.80;99.90;;;;;;4965691;28;20801;-59
2021/10/26 03:49:45;;;;;;;22.50;11.53;;;4.80;99.90;;;;;;4951992;28;20480;-59
2021/10/26 03:52:11;;;;;;;19.80;11.00;;;4.80;99.90;;;;;;4960096;28;20469;-59
2021/10/26 03:54:38;;;;;;;16.87;11.20;;;4.80;99.90;;;;;;4968616;28;22405;-61
2021/10/26 03:57:08;;;;;;;20.83;12.10;;;4.80;99.90;;;;;;4962425;28;20444;-59
2021/10/26 03:59:35;;;;;;;24.90;13.73;;;4.80;99.90;;;;;;4974327;28;20477;-56
2021/10/26 04:02:06;;;;;;;22.30;10.83;;;4.80;99.90;;;;;;4983376;28;21020;-53
2021/10/26 04:04:32;;;;;;;21.87;11.33;;;4.80;99.90;;;;;;4968245;28;20459;-55
2021/10/26 04:06:58;;;;;;;24.43;11.27;;;4.80;99.90;;;;;;4967679;28;20437;-57
2021/10/26 04:09:32;;;;;;;20.03;12.03;;;4.80;99.90;;;;;;4967511;28;20560;-57
2021/10/26 04:14:42;;;;;;;18.37;11.27;;;4.80;99.90;;;;;;4967213;28;20439;-58
2021/10/26 04:17:08;;;;;;;25.70;11.40;;;4.70;99.90;;;;;;4968232;28;20468;-59
2021/10/26 04:19:34;;;;;;;17.20;11.40;;;4.80;99.90;;;;;;4966253;28;20463;-58
2021/10/26 04:21:59;;;;;;;19.60;11.60;;;4.80;99.90;;;;;;4985180;28;20209;-62
2021/10/26 04:24:25;;;;;;;23.40;11.83;;;4.80;99.90;;;;;;4968382;28;20585;-62
2021/10/26 04:26:51;;;;;;;19.73;11.73;;;4.80;99.90;;;;;;4969348;28;20169;-61
2021/10/26 04:29:17;;;;;;;20.47;11.77;;;4.80;99.90;;;;;;4968960;28;20443;-61
2021/10/26 04:31:42;;;;;;;19.20;11.80;;;4.90;99.90;;;;;;4961892;28;20202;-62
2021/10/26 04:34:08;;;;;;;20.50;12.17;;;4.80;99.90;;;;;;4967548;28;20178;-60
2021/10/26 04:36:34;;;;;;;19.90;11.17;;;4.90;99.90;;;;;;4984986;28;20695;-61
2021/10/26 04:39:00;;;;;;;18.20;11.17;;;4.90;99.90;;;;;;4969993;28;20256;-61
2021/10/26 04:41:26;;;;;;;20.93;11.90;;;4.90;99.90;;;;;;4970425;28;20190;-61
2021/10/26 04:43:52;;;;;;;21.40;12.37;;;4.90;99.90;;;;;;4972331;28;20619;-60
2021/10/26 04:46:17;;;;;;;18.33;11.87;;;4.90;99.90;;;;;;4971768;28;20587;-61
2021/10/26 04:48:43;;;;;;;21.17;11.20;;;4.90;99.90;;;;;;4967148;28;20181;-61
2021/10/26 04:51:09;;;;;;;19.33;11.83;;;4.90;99.90;;;;;;4967659;28;20438;-61
2021/10/26 04:53:35;;;;;;;22.23;11.70;;;4.90;99.90;;;;;;4969561;28;20181;-60
2021/10/26 04:56:01;;;;;;;19.73;10.40;;;4.90;99.90;;;;;;4966247;28;20425;-61
2021/10/26 04:58:27;;;;;;;18.63;11.83;;;4.90;99.90;;;;;;4967758;28;20197;-61
2021/10/26 05:00:52;;;;;;;22.90;11.93;;;4.90;99.90;;;;;;4971269;28;20218;-61
2021/10/26 05:03:18;;;;;;;18.80;11.40;;;4.90;99.90;;;;;;4966743;28;20448;-59
2021/10/26 05:05:44;;;;;;;16.40;10.97;;;4.90;99.90;;;;;;4973322;28;20213;-61
2021/10/26 05:08:10;;;;;;;17.60;11.30;;;5.00;99.90;;;;;;4973740;28;20683;-61
2021/10/26 05:10:35;;;;;;;17.80;10.77;;;5.00;99.90;;;;;;4970868;28;20189;-61
2021/10/26 05:13:01;;;;;;;23.30;12.67;;;4.90;99.90;;;;;;4973275;28;20674;-61
2021/10/26 05:15:27;;;;;;;19.83;10.73;;;5.00;99.90;;;;;;4963938;28;20277;-61
2021/10/26 05:17:52;;;;;;;18.17;11.50;;;5.00;99.90;;;;;;4987884;28;20178;-60
2021/10/26 05:20:20;;;;;;;22.60;12.70;;;5.00;99.90;;;;;;4970455;28;20186;-61
2021/10/26 05:22:46;;;;;;;17.57;11.00;;;5.00;99.90;;;;;;4972751;28;20453;-60
2021/10/26 05:25:12;;;;;;;19.47;11.33;;;5.10;99.90;;;;;;4971129;28;20455;-61
2021/10/26 05:27:39;;;;;;;18.33;11.40;;;5.00;99.90;;;;;;4973291;28;20180;-60
2021/10/26 05:30:08;;;;;;;19.17;11.00;;;5.00;99.90;;;;;;4971508;28;21142;-60
2021/10/26 05:32:34;;;;;;;19.63;12.30;;;5.00;99.90;;;;;;4961031;28;20884;-61
2021/10/26 05:35:00;;;;;;;19.33;12.37;;;5.10;99.90;;;;;;4954044;29;20457;-61
2021/10/26 05:37:25;;;;;;;22.80;12.33;;;5.10;99.90;;;;;;4965030;28;20196;-61
2021/10/26 05:39:51;;;;;;;20.30;11.33;;;5.10;99.90;;;;;;4954213;28;20182;-61
2021/10/26 05:42:17;;;;;;;27.33;12.20;;;5.10;99.90;;;;;;4969316;28;20229;-60
2021/10/26 05:44:42;;;;;;;20.77;11.43;;;5.20;99.90;;;;;;4971952;28;20673;-60
2021/10/26 05:47:08;;;;;;;19.10;11.37;;;5.20;99.90;;;;;;4970779;28;20174;-61
2021/10/26 05:49:34;;;;;;;23.03;12.43;;;5.20;99.90;;;;;;4961744;28;20264;-61
2021/10/26 05:52:00;;;;;;;23.10;12.40;;;5.20;99.90;;;;;;4961365;28;20213;-61
2021/10/26 05:54:25;;;;;;;23.83;11.60;;;5.20;99.90;;;;;;4972988;28;20185;-60
2021/10/26 05:56:51;;;;;;;18.60;11.93;;;5.20;99.90;;;;;;4970628;28;20182;-61
2021/10/26 05:59:17;;;;;;;19.37;11.33;;;5.20;99.90;;;;;;4972934;28;20175;-60
2021/10/26 06:01:43;;;;;;;20.97;11.57;;;5.10;99.90;;;;;;4971313;28;20992;-61
2021/10/26 06:04:08;;;;;;;22.87;11.57;;;5.10;99.90;;;;;;4970232;28;20170;-61
2021/10/26 06:06:35;;;;;;;23.60;11.97;;;5.10;99.90;;;;;;4956083;28;20229;-61
2021/10/26 06:09:01;;;;;;;17.50;11.50;;;5.10;99.90;;;;;;4971251;28;20624;-61
2021/10/26 06:11:27;;;;;;;22.50;12.23;;;5.10;99.90;;;;;;4971318;28;20516;-61
2021/10/26 06:14:04;;;;;;;28.30;12.97;;;5.10;99.90;;;;;;4970621;28;20643;-61
2021/10/26 06:16:32;;;;;;;21.70;12.20;;;5.10;99.90;;;;;;4971998;28;20768;-60
2021/10/26 06:18:58;;;;;;;23.77;13.33;;;5.10;99.90;;;;;;4972415;28;20779;-61
2021/10/26 06:21:25;;;;;;;26.20;12.70;;;5.10;99.90;;;;;;4972232;28;20425;-61
2021/10/26 06:23:53;;;;;;;24.80;12.40;;;5.10;99.90;;;;;;4972295;28;20732;-61
2021/10/26 06:26:19;;;;;;;25.87;13.03;;;5.00;99.90;;;;;;4952804;29;20557;-61
2021/10/26 06:28:45;;;;;;;26.53;13.30;;;5.10;99.90;;;;;;4957251;28;20417;-61
2021/10/26 06:31:10;;;;;;;23.10;12.90;;;5.00;99.90;;;;;;4968986;28;20492;-61
2021/10/26 06:33:36;;;;;;;23.10;14.30;;;5.00;99.90;;;;;;4972206;28;20169;-61
2021/10/26 06:36:02;;;;;;;21.33;12.60;;;5.10;99.90;;;;;;4971897;28;20482;-61
2021/10/26 06:38:27;;;;;;;25.40;13.20;;;5.10;99.90;;;;;;4972138;28;20170;-61
2021/10/26 06:40:53;;;;;;;35.60;14.40;;;5.20;99.90;;;;;;4962607;28;20190;-61
2021/10/26 06:43:19;;;;;;;24.90;14.70;;;5.20;99.90;;;;;;4970821;28;20202;-61
2021/10/26 06:45:45;;;;;;;29.43;14.00;;;5.20;99.90;;;;;;4969988;28;20228;-61
2021/10/26 06:48:10;;;;;;;30.10;13.90;;;5.30;99.90;;;;;;4970869;28;20443;-61
2021/10/26 06:50:36;;;;;;;24.10;13.80;;;5.40;99.90;;;;;;4972010;28;21520;-61
2021/10/26 06:53:02;;;;;;;24.10;12.90;;;5.40;99.90;;;;;;4970814;28;20702;-60
2021/10/26 06:55:28;;;;;;;25.53;13.83;;;5.50;99.90;;;;;;4972225;28;20243;-61
2021/10/26 06:57:54;;;;;;;24.30;13.10;;;5.50;99.90;;;;;;4953652;28;20187;-61
2021/10/26 07:00:20;;;;;;;24.40;13.63;;;5.60;99.90;;;;;;4964615;28;20433;-61
2021/10/26 07:02:50;;;;;;;23.70;12.00;;;5.60;99.90;;;;;;4971207;28;21128;-60
2021/10/26 07:05:25;;;;;;;20.43;12.77;;;5.70;99.90;;;;;;4969024;28;20845;-61
2021/10/26 07:07:51;;;;;;;27.57;14.07;;;5.70;99.90;;;;;;4971505;28;20416;-60
2021/10/26 07:10:18;;;;;;;22.47;13.50;;;5.80;99.90;;;;;;4957708;28;20466;-61
2021/10/26 07:12:45;;;;;;;23.00;13.50;;;5.80;99.90;;;;;;4958711;28;20479;-60
2021/10/26 07:15:13;;;;;;;21.90;12.87;;;5.90;99.90;;;;;;4969714;28;20853;-61
2021/10/26 07:17:40;;;;;;;27.23;12.63;;;6.00;99.90;;;;;;4952219;29;20423;-61
2021/10/26 07:20:08;;;;;;;25.40;13.30;;;6.00;99.90;;;;;;4970320;28;20472;-61
2021/10/26 07:22:34;;;;;;;20.63;12.20;;;6.10;99.90;;;;;;4970781;28;20830;-61
2021/10/26 07:25:05;;;;;;;23.63;13.90;;;6.10;99.90;;;;;;4971174;28;20475;-61
2021/10/26 07:27:31;;;;;;;30.03;14.80;;;6.20;99.90;;;;;;4966065;28;20519;-61
2021/10/26 07:29:56;;;;;;;22.47;13.63;;;6.30;99.90;;;;;;4954064;28;20437;-61
2021/10/26 07:32:23;;;;;;;25.80;14.43;;;6.40;99.90;;;;;;4969173;28;20946;-61
2021/10/26 07:34:49;;;;;;;23.60;13.00;;;6.40;99.90;;;;;;4970713;28;20174;-61
2021/10/26 07:37:19;;;;;;;26.30;14.13;;;6.40;99.90;;;;;;4964838;28;20449;-61
2021/10/26 07:39:46;;;;;;;43.37;15.17;;;6.50;99.90;;;;;;4952458;28;20398;-61
2021/10/26 07:42:14;;;;;;;45.40;15.17;;;6.60;99.90;;;;;;4958373;28;20859;-61
2021/10/26 07:44:40;;;;;;;25.20;13.97;;;6.60;99.90;;;;;;4987405;28;20515;-60
2021/10/26 07:47:05;;;;;;;27.70;13.67;;;6.70;99.90;;;;;;4968673;28;20441;-61
2021/10/26 07:49:32;;;;;;;25.40;14.47;;;6.80;99.90;;;;;;4981734;28;20669;-60
2021/10/26 07:51:58;;;;;;;24.03;12.33;;;6.80;99.90;;;;;;4977231;28;20217;-60
2021/10/26 07:54:24;;;;;;;25.47;13.40;;;6.90;99.90;;;;;;4968263;28;20441;-61
2021/10/26 07:56:51;;;;;;;25.30;13.40;;;6.90;99.90;;;;;;4953333;28;20425;-61
2021/10/26 07:59:17;;;;;;;26.37;14.10;;;7.00;99.90;;;;;;4970520;28;20174;-61
2021/10/26 08:01:45;;;;;;;35.40;15.33;;;7.00;99.90;;;;;;4970367;28;20447;-60
2021/10/26 08:04:11;;;;;;;40.90;15.93;;;7.10;99.90;;;;;;4965671;28;20434;-61
2021/10/26 08:06:39;;;;;;;41.40;16.00;;;7.20;99.90;;;;;;4951184;29;20414;-61
2021/10/26 08:09:04;;;;;;;54.93;18.20;;;7.30;99.90;;;;;;4951119;28;21205;-61
2021/10/26 08:11:32;;;;;;;39.10;17.00;;;7.30;99.90;;;;;;4961264;28;20528;-61
2021/10/26 08:13:57;;;;;;;35.70;16.93;;;7.40;99.90;;;;;;4969999;28;20201;-61
2021/10/26 08:16:23;;;;;;;41.60;17.43;;;7.40;99.90;;;;;;4985355;28;20979;-61
2021/10/26 08:18:49;;;;;;;44.23;16.87;;;7.40;99.90;;;;;;4957483;28;20217;-61
2021/10/26 08:21:14;;;;;;;34.80;17.70;;;7.50;99.90;;;;;;4951786;28;20190;-61
2021/10/26 08:23:42;;;;;;;47.17;19.03;;;7.50;99.90;;;;;;4950448;29;20185;-62
2021/10/26 08:26:13;;;;;;;35.33;17.77;;;7.60;99.90;;;;;;4951273;28;20201;-61
2021/10/26 08:28:39;;;;;;;52.70;18.43;;;7.70;99.90;;;;;;4951585;28;20894;-61
2021/10/26 08:31:18;;;;;;;41.43;18.37;;;7.80;99.90;;;;;;4967317;28;20429;-61
2021/10/26 08:36:28;;;;;;;36.93;18.60;;;8.00;99.90;;;;;;4970490;28;20448;-61
2021/10/26 08:38:55;;;;;;;40.03;18.77;;;8.10;99.90;;;;;;4964293;28;21173;-61
2021/10/26 08:41:23;;;;;;;40.40;19.87;;;8.20;99.90;;;;;;4966101;28;20440;-62
2021/10/26 08:43:51;;;;;;;39.83;18.73;;;8.30;99.90;;;;;;4962463;28;20484;-61
2021/10/26 08:46:17;;;;;;;27.10;16.07;;;8.40;99.90;;;;;;4969725;28;20453;-61
2021/10/26 08:48:46;;;;;;;22.53;13.60;;;8.50;99.90;;;;;;4970339;28;20606;-61
2021/10/26 08:51:12;;;;;;;21.33;12.23;;;8.60;99.90;;;;;;4964338;28;21002;-61
2021/10/26 08:53:38;;;;;;;24.07;11.80;;;8.80;99.90;;;;;;4968077;28;20516;-61
2021/10/26 08:56:05;;;;;;;20.20;13.63;;;8.90;99.90;;;;;;4962848;28;20213;-61
2021/10/26 08:58:32;;;;;;;21.70;11.07;;;9.10;99.90;;;;;;4959594;29;20417;-61
2021/10/26 09:01:03;;;;;;;20.30;10.77;;;9.30;99.90;;;;;;4968869;28;20433;-61
2021/10/26 09:03:34;;;;;;;15.23;10.87;;;9.30;99.90;;;;;;4964034;28;20452;-61
2021/10/26 09:06:01;;;;;;;17.40;10.87;;;9.40;99.90;;;;;;4958787;28;20460;-61
2021/10/26 09:08:28;;;;;;;17.13;10.73;;;9.40;99.90;;;;;;4973666;28;20857;-61
2021/10/26 09:11:02;;;;;;;17.20;10.03;;;9.40;99.90;;;;;;4954561;28;20437;-61
2021/10/26 09:16:47;;;;;;;17.07;10.53;;;9.60;99.90;;;;;;4954401;29;20468;-61
2021/10/26 09:19:18;;;;;;;15.87;10.00;;;9.90;99.90;;;;;;4969167;28;20428;-61
2021/10/26 09:21:54;;;;;;;14.63;10.00;;;10.10;99.90;;;;;;4972361;28;20444;-61
2021/10/26 09:24:19;;;;;;;13.17;9.63;;;10.30;99.90;;;;;;4988339;28;20467;-61
2021/10/26 09:26:58;;;;;;;11.40;8.20;;;10.40;99.90;;;;;;4963526;28;20426;-61
2021/10/26 09:29:29;;;;;;;14.60;9.57;;;10.60;99.90;;;;;;4955763;28;20905;-61
2021/10/26 09:32:13;;;;;;;17.73;10.27;;;10.60;99.90;;;;;;4972273;28;20437;-60
2021/10/26 09:34:47;;;;;;;13.00;9.60;;;10.70;99.90;;;;;;4968827;28;20429;-61
2021/10/26 09:37:15;;;;;;;19.83;9.50;;;10.80;99.90;;;;;;4954233;28;20516;-62
2021/10/26 09:39:56;;;;;;;13.87;8.20;;;10.90;99.90;;;;;;4955398;28;20421;-61
2021/10/26 09:42:23;;;;;;;11.67;7.63;;;11.00;99.90;;;;;;4972087;28;20444;-61
2021/10/26 09:44:52;;;;;;;9.43;6.90;;;11.10;99.90;;;;;;4968785;28;20464;-61
2021/10/26 09:47:24;;;;;;;10.80;5.80;;;11.30;99.90;;;;;;4978523;28;20501;-61
2021/10/26 09:49:56;;;;;;;5.87;4.67;;;11.40;99.90;;;;;;4952400;28;20524;-62
2021/10/26 09:52:30;;;;;;;8.10;4.87;;;11.50;99.90;;;;;;4953528;28;20477;-62
2021/10/26 09:55:11;;;;;;;10.43;3.87;;;11.60;99.90;;;;;;4969260;28;20804;-61
2021/10/26 09:58:00;;;;;;;7.27;3.70;;;11.60;99.90;;;;;;4972477;28;20984;-61
2021/10/26 10:00:36;;;;;;;9.10;3.37;;;11.70;99.90;;;;;;4961213;28;20705;-62
2021/10/26 10:03:05;;;;;;;4.90;3.10;;;11.90;99.90;;;;;;4953218;28;20430;-61
2021/10/26 10:05:35;;;;;;;3.57;2.63;;;12.10;96.90;;;;;;4953715;28;20966;-61
2021/10/26 10:08:27;;;;;;;4.53;2.97;;;12.30;97.00;;;;;;4965646;28;20922;-61
2021/10/26 10:10:55;;;;;;;5.03;2.80;;;12.30;96.20;;;;;;4965220;28;20580;-61
2021/10/26 10:13:22;;;;;;;7.10;3.13;;;12.30;95.50;;;;;;4972042;28;20409;-62
2021/10/26 10:15:49;;;;;;;6.80;3.17;;;12.20;95.70;;;;;;4971912;28;20413;-61
2021/10/26 10:18:18;;;;;;;3.23;2.90;;;12.20;95.70;;;;;;4974641;28;20438;-61
2021/10/26 10:20:46;;;;;;;8.77;3.03;;;12.20;95.40;;;;;;4953760;28;20633;-61
2021/10/26 10:23:12;;;;;;;6.90;3.37;;;12.30;95.70;;;;;;4952591;28;20569;-61
2021/10/26 10:25:42;;;;;;;5.53;3.57;;;12.40;96.00;;;;;;4970309;28;20732;-61
2021/10/26 10:28:10;;;;;;;4.30;3.30;;;12.60;95.80;;;;;;4972495;28;20398;-61
2021/10/26 10:30:37;;;;;;;3.90;2.97;;;12.80;93.30;;;;;;4967446;28;20505;-61
2021/10/26 10:33:02;;;;;;;3.53;2.90;;;12.90;92.90;;;;;;4952876;28;20463;-61
2021/10/26 10:35:30;;;;;;;6.80;3.07;;;13.00;93.10;;;;;;4961826;28;20514;-61
2021/10/26 10:37:58;;;;;;;8.53;3.37;;;13.10;92.20;;;;;;4970521;28;20331;-62
2021/10/26 10:40:31;;;;;;;4.20;2.87;;;13.20;91.50;;;;;;4986783;28;20429;-62
2021/10/26 10:42:58;;;;;;;5.00;2.60;;;13.30;90.70;;;;;;4971172;28;20565;-61
2021/10/26 10:45:31;;;;;;;5.20;3.03;;;13.20;90.40;;;;;;4971271;28;20462;-62
2021/10/26 10:47:58;;;;;;;2.60;2.40;;;13.10;90.10;;;;;;4969399;28;20441;-61
2021/10/26 10:50:50;;;;;;;5.20;2.57;;;13.00;89.70;;;;;;4960519;28;20448;-59
2021/10/26 10:53:19;;;;;;;7.00;3.03;;;12.80;84.40;;;;;;4954179;28;20969;-60
2021/10/26 10:56:10;;;;;;;4.10;2.50;;;12.70;88.10;;;;;;4953232;28;20453;-60
2021/10/26 10:58:42;;;;;;;4.23;3.03;;;12.50;91.00;;;;;;4967177;28;20934;-60
2021/10/26 11:01:36;;;;;;;4.77;3.30;;;12.50;92.50;;;;;;4965284;28;20441;-56
2021/10/26 11:04:17;;;;;;;4.90;2.77;;;12.40;93.00;;;;;;4970247;28;20515;-58
2021/10/26 11:06:43;;;;;;;6.20;3.23;;;12.30;94.30;;;;;;4969175;28;20445;-60
2021/10/26 11:09:36;;;;;;;4.73;2.83;;;12.40;95.30;;;;;;4970949;28;20490;-59
2021/10/26 11:12:15;;;;;;;5.23;2.63;;;12.40;94.90;;;;;;4967040;28;20226;-59
2021/10/26 11:14:54;;;;;;;4.83;3.40;;;12.40;93.40;;;;;;4972214;28;20433;-60
2021/10/26 11:17:32;;;;;;;3.73;2.60;;;12.40;93.00;;;;;;4970046;28;20457;-60
2021/10/26 11:20:06;;;;;;;5.00;3.50;;;12.40;93.20;;;;;;4968713;28;20498;-60
2021/10/26 11:22:51;;;;;;;6.10;3.93;;;12.40;93.60;;;;;;4972935;28;20468;-58
2021/10/26 11:25:34;;;;;;;8.40;4.90;;;12.40;94.50;;;;;;4968269;28;20526;-59
2021/10/26 11:28:12;;;;;;;10.33;4.63;;;12.50;94.80;;;;;;4981400;28;20472;-59
2021/10/26 11:30:44;;;;;;;8.13;4.60;;;12.50;95.20;;;;;;4967789;28;20940;-59
2021/10/26 11:33:13;;;;;;;11.83;4.70;;;12.60;95.30;;;;;;4965895;28;20860;-60
2021/10/26 11:35:58;;;;;;;5.80;3.97;;;12.60;95.20;;;;;;4966893;28;20808;-59
2021/10/26 11:38:37;;;;;;;9.60;4.73;;;12.60;95.10;;;;;;4969393;28;20953;-60
2021/10/26 11:41:22;;;;;;;4.83;4.00;;;12.70;95.20;;;;;;4964317;28;20437;-59
2021/10/26 11:43:59;;;;;;;8.40;4.20;;;12.70;95.30;;;;;;4969690;28;20405;-60
2021/10/26 11:46:32;;;;;;;10.20;3.70;;;12.80;96.40;;;;;;4964303;28;20469;-59
2021/10/26 11:49:08;;;;;;;7.07;4.27;;;12.90;96.80;;;;;;4967086;28;20452;-59
2021/10/26 11:51:46;;;;;;;7.97;4.47;;;12.90;97.10;;;;;;4965914;28;20460;-60
2021/10/26 11:54:21;;;;;;;6.90;4.27;;;12.80;97.00;;;;;;4965144;28;20429;-59
2021/10/26 11:56:53;;;;;;;8.40;4.70;;;12.70;97.00;;;;;;4964345;28;20433;-59
2021/10/26 11:59:36;;;;;;;11.13;5.93;;;12.60;96.60;;;;;;4969938;28;20425;-60
2021/10/26 12:02:04;;;;;;;10.73;6.67;;;12.60;97.90;;;;;;4957253;28;20517;-59
2021/10/26 12:04:38;;;;;;;11.90;8.17;;;12.50;98.60;;;;;;4969773;28;20453;-60
2021/10/26 12:07:13;;;;;;;15.43;8.03;;;12.50;99.50;;;;;;4975467;28;20433;-59
2021/10/26 12:09:41;;;;;;;10.47;8.00;;;12.50;99.70;;;;;;4974480;28;20482;-60
2021/10/26 12:12:31;;;;;;;12.43;7.90;;;12.60;99.90;;;;;;4967231;28;20973;-60
2021/10/26 12:14:59;;;;;;;7.73;6.27;;;12.60;99.90;;;;;;4962352;28;20717;-60
2021/10/26 12:17:32;;;;;;;10.10;7.37;;;12.60;99.90;;;;;;4969913;28;21115;-59
2021/10/26 12:20:10;;;;;;;18.40;7.60;;;12.60;99.90;;;;;;4968197;28;20480;-60
2021/10/26 12:22:40;;;;;;;9.93;8.10;;;12.60;99.80;;;;;;4969531;28;20459;-60
2021/10/26 12:25:20;;;;;;;10.70;7.63;;;12.60;99.90;;;;;;4968415;28;20453;-59
2021/10/26 12:27:47;;;;;;;17.97;10.40;;;12.50;99.90;;;;;;4970461;28;20847;-60
2021/10/26 12:30:17;;;;;;;17.27;9.50;;;12.60;99.70;;;;;;4966557;28;20467;-59
2021/10/26 12:32:58;;;;;;;15.60;8.30;;;12.60;99.70;;;;;;4986810;28;20590;-60
2021/10/26 12:35:45;;;;;;;12.10;7.90;;;12.70;99.40;;;;;;4968024;28;21031;-60
2021/10/26 12:38:35;;;;;;;12.00;8.30;;;12.80;99.30;;;;;;4966252;28;20857;-60
2021/10/26 12:41:06;;;;;;;13.13;8.97;;;13.00;98.60;;;;;;4968212;28;20776;-60
2021/10/26 12:43:33;;;;;;;16.77;9.83;;;13.20;97.10;;;;;;4973592;28;20910;-60
2021/10/26 12:46:14;;;;;;;15.83;8.90;;;13.40;96.20;;;;;;4967017;28;20475;-60
2021/10/26 12:48:39;;;;;;;14.80;9.60;;;13.70;95.50;;;;;;4972306;28;20425;-60
2021/10/26 12:51:07;;;;;;;11.40;8.60;;;13.90;95.00;;;;;;4982927;28;20433;-57
2021/10/26 12:53:42;;;;;;;12.53;7.80;;;14.00;93.10;;;;;;4981149;28;20182;-60